createdAt,value
2023-03-28T00:03:57.713Z,81.75
2023-03-28T00:08:59.348Z,81.57
2023-03-28T00:14:01.571Z,81.92
2023-03-28T00:19:08.722Z,82.07
2023-03-28T00:24:13.895Z,81.36
2023-03-28T00:29:20.983Z,80.83
2023-03-28T00:34:23.012Z,80.13
2023-03-28T00:39:27.754Z,80.65
2023-03-28T00:44:42.932Z,79.85
2023-03-28T00:49:46.844Z,79.70
2023-03-28T00:54:48.495Z,79.77
2023-03-28T00:59:53.169Z,79.40
2023-03-28T01:04:59.372Z,79.28
2023-03-28T01:10:03.993Z,78.66
2023-03-28T01:15:07.450Z,78.39
2023-03-28T01:20:46.667Z,78.53
2023-03-28T01:25:59.194Z,77.99
2023-03-28T01:31:13.584Z,78.06
2023-03-28T01:36:52.478Z,77.11
2023-03-28T01:41:55.392Z,76.10
2023-03-28T01:47:06.355Z,75.53
2023-03-28T01:52:15.932Z,75.52
2023-03-28T01:57:32.885Z,76.26
2023-03-28T02:02:40.678Z,77.44
2023-03-28T02:07:58.628Z,78.02
2023-03-28T02:13:18.241Z,78.39
2023-03-28T02:18:48.182Z,77.83
2023-03-28T02:24:16.395Z,77.65
2023-03-28T02:29:48.022Z,77.84
2023-03-28T02:34:53.612Z,77.56
2023-03-28T02:40:36.355Z,78.81
2023-03-28T02:45:56.685Z,79.04
2023-03-28T02:51:07.028Z,85.29
2023-03-28T02:56:22.741Z,87.93
2023-03-28T03:01:44.929Z,89.37
2023-03-28T03:06:48.520Z,90.15
2023-03-28T03:11:50.494Z,91.11
2023-03-28T03:16:52.555Z,88.47
2023-03-28T03:21:55.871Z,87.36
2023-03-28T03:26:57.996Z,88.14
2023-03-28T03:31:59.924Z,91.10
2023-03-28T03:37:17.970Z,94.36
2023-03-28T03:42:19.844Z,95.39
2023-03-28T03:47:23.007Z,96.26
2023-03-28T03:52:25.786Z,96.77
2023-03-28T03:57:27.938Z,97.20
2023-03-28T04:02:34.218Z,97.54
2023-03-28T04:07:37.503Z,96.06
2023-03-28T04:12:45.598Z,95.65
2023-03-28T04:17:50.531Z,94.61
2023-03-28T04:22:56.749Z,94.75
2023-03-28T04:28:02.003Z,94.01
2023-03-28T04:33:07.602Z,93.71
2023-03-28T04:38:20.682Z,94.54
2023-03-28T04:43:30.517Z,94.32
2023-03-28T04:48:32.341Z,93.58
2023-03-28T04:53:34.112Z,94.04
2023-03-28T04:58:58.596Z,92.66
2023-03-28T05:04:02.651Z,91.64
2023-03-28T05:09:05.178Z,91.17
2023-03-28T05:14:07.264Z,90.81
2023-03-28T05:19:18.073Z,90.49
2023-03-28T05:24:35.746Z,90.16
2023-03-28T05:29:45.559Z,89.89
2023-03-28T05:34:47.827Z,88.41
2023-03-28T05:39:49.754Z,87.03
2023-03-28T05:44:51.499Z,86.12
2023-03-28T05:49:59.069Z,85.35
2023-03-28T05:55:00.788Z,85.13
2023-03-28T06:00:13.527Z,83.26
2023-03-28T06:05:21.300Z,82.22
2023-03-28T06:10:24.193Z,80.68
2023-03-28T06:15:58.448Z,79.04
2023-03-28T06:21:05.983Z,78.47
2023-03-28T06:26:08.266Z,79.01
2023-03-28T06:31:16.430Z,78.11
2023-03-28T06:36:19.387Z,76.01
2023-03-28T06:41:21.116Z,74.62
2023-03-28T06:46:23.001Z,73.45
2023-03-28T06:51:25.363Z,74.86
2023-03-28T06:56:27.985Z,74.60
2023-03-28T07:01:31.782Z,73.73
2023-03-28T07:06:44.221Z,75.95
2023-03-28T07:11:45.951Z,74.62
2023-03-28T07:16:47.855Z,74.25
2023-03-28T07:21:49.829Z,73.73
2023-03-28T07:26:54.837Z,73.83
2023-03-28T07:32:03.395Z,73.88
2023-03-28T07:37:05.426Z,71.96
2023-03-28T07:42:36.303Z,72.12
2023-03-28T07:47:37.998Z,72.37
2023-03-28T07:52:45.376Z,72.23
2023-03-28T07:57:47.490Z,71.40
2023-03-28T08:03:04.812Z,70.76
2023-03-28T08:08:07.443Z,68.57
2023-03-28T08:13:09.409Z,69.41
2023-03-28T08:18:12.990Z,66.97
2023-03-28T08:23:15.623Z,66.86
2023-03-28T08:28:36.728Z,64.77
2023-03-28T08:33:38.889Z,63.76
2023-03-28T08:38:44.905Z,62.14
2023-03-28T08:44:40.927Z,65.07
2023-03-28T08:55:02.464Z,62.72
2023-03-28T09:00:16.904Z,60.31
2023-03-28T09:05:27.408Z,59.28
2023-03-28T09:10:50.772Z,57.33
2023-03-28T09:16:08.899Z,57.78
2023-03-28T09:21:21.536Z,58.64
2023-03-28T09:26:28.109Z,56.05
2023-03-28T09:31:41.282Z,53.80
2023-03-28T09:36:49.372Z,53.95
2023-03-28T09:42:37.026Z,52.81
2023-03-28T09:47:57.412Z,51.15
2023-03-28T09:53:02.637Z,48.69
2023-03-28T09:58:11.033Z,49.84
2023-03-28T10:03:38.762Z,50.93
2023-03-28T10:08:43.817Z,49.39
2023-03-28T10:14:06.053Z,48.16
2023-03-28T10:19:10.985Z,47.80
2023-03-28T10:24:21.971Z,49.15
2023-03-28T10:29:34.497Z,48.58
2023-03-28T10:34:37.361Z,44.76
2023-03-28T10:40:01.500Z,42.86
2023-03-28T10:45:42.450Z,45.49
2023-03-28T10:50:53.717Z,46.31
2023-03-28T10:56:24.625Z,45.83
2023-03-28T11:01:40.293Z,45.20
2023-03-28T11:07:00.402Z,44.57
2023-03-28T11:12:51.226Z,43.56
2023-03-28T11:18:03.817Z,44.26
2023-03-28T11:23:42.721Z,46.16
2023-03-28T11:29:14.759Z,45.70
2023-03-28T11:34:24.294Z,44.27
2023-03-28T11:39:43.143Z,42.95
2023-03-28T11:45:16.952Z,43.99
2023-03-28T11:50:29.076Z,42.71
2023-03-28T11:55:42.997Z,45.02
2023-03-28T12:01:06.738Z,45.65
2023-03-28T12:06:33.950Z,44.79
2023-03-28T12:11:57.022Z,44.21
2023-03-28T12:16:59.941Z,44.91
2023-03-28T12:22:35.914Z,44.80
2023-03-28T12:27:53.371Z,42.72
2023-03-28T12:33:06.694Z,43.09
2023-03-28T12:39:04.820Z,44.53
2023-03-28T12:44:14.016Z,42.13
2023-03-28T12:49:51.233Z,42.44
2023-03-28T12:54:58.988Z,42.74
2023-03-28T13:00:30.828Z,41.39
2023-03-28T13:06:07.227Z,41.96
2023-03-28T13:11:20.369Z,42.28
2023-03-28T13:21:57.886Z,43.27
2023-03-28T13:27:02.026Z,43.77
2023-03-28T13:32:04.505Z,45.01
2023-03-28T13:37:24.153Z,45.44
2023-03-28T13:42:31.818Z,45.69
2023-03-28T13:47:38.713Z,46.25
2023-03-28T13:52:40.612Z,45.32
2023-03-28T13:57:42.339Z,44.23
2023-03-28T14:02:47.857Z,44.84
2023-03-28T14:07:51.452Z,46.57
2023-03-28T14:12:53.908Z,47.15
2023-03-28T14:17:57.367Z,43.81
2023-03-28T14:23:01.423Z,42.76
2023-03-28T14:28:08.741Z,43.99
2023-03-28T14:33:12.796Z,45.54
2023-03-28T14:38:34.650Z,43.60
2023-03-28T14:43:37.170Z,44.77
2023-03-28T14:48:39.383Z,44.02
2023-03-28T14:53:42.698Z,45.06
2023-03-28T14:58:46.152Z,42.17
2023-03-28T15:03:49.944Z,42.83
2023-03-28T15:08:52.645Z,42.75
2023-03-28T15:13:59.687Z,42.64
2023-03-28T15:19:07.284Z,43.36
2023-03-28T15:24:15.579Z,44.12
2023-03-28T15:29:21.646Z,44.57
2023-03-28T15:34:27.312Z,48.04
2023-03-28T15:39:33.564Z,50.34
2023-03-28T15:44:37.969Z,49.95
2023-03-28T15:49:40.111Z,50.19
2023-03-28T15:54:43.701Z,50.05
2023-03-28T15:59:48.632Z,50.00
2023-03-28T16:05:16.688Z,50.69
2023-03-28T16:10:20.964Z,50.18
2023-03-28T16:15:41.551Z,50.62
2023-03-28T16:21:12.769Z,52.86
2023-03-28T16:26:15.086Z,53.27
2023-03-28T16:31:16.881Z,56.47
2023-03-28T16:36:18.568Z,56.72
2023-03-28T16:41:20.795Z,56.61
2023-03-28T16:46:22.619Z,57.91
2023-03-28T16:51:24.551Z,59.29
2023-03-28T16:56:27.543Z,60.98
2023-03-28T17:01:29.347Z,61.22
2023-03-28T17:06:31.000Z,62.48
2023-03-28T17:11:33.069Z,63.00
2023-03-28T17:16:34.852Z,63.17
2023-03-28T17:21:37.588Z,64.37
2023-03-28T17:26:39.230Z,65.87
2023-03-28T17:31:40.992Z,65.66
2023-03-28T17:36:43.175Z,66.93
2023-03-28T17:41:44.797Z,67.19
2023-03-28T17:46:47.198Z,67.81
2023-03-28T17:51:49.981Z,68.18
2023-03-28T17:56:52.704Z,68.92
2023-03-28T18:01:54.717Z,69.97
2023-03-28T18:06:56.972Z,70.49
2023-03-28T18:11:58.634Z,70.43
2023-03-28T18:17:02.300Z,71.19
2023-03-28T18:22:04.151Z,70.58
2023-03-28T18:27:05.983Z,70.61
2023-03-28T18:32:07.756Z,71.49
2023-03-28T18:37:11.050Z,72.54
2023-03-28T18:42:12.776Z,71.77
2023-03-28T18:47:14.462Z,72.40
2023-03-28T18:52:16.536Z,72.12
2023-03-28T18:57:18.290Z,72.72
2023-03-28T19:02:20.671Z,72.68
2023-03-28T19:07:22.700Z,72.63
2023-03-28T19:12:24.334Z,72.97
2023-03-28T19:17:26.334Z,73.38
2023-03-28T19:22:27.967Z,74.19
2023-03-28T19:27:29.603Z,74.08
2023-03-28T19:32:32.661Z,73.75
2023-03-28T19:37:34.470Z,74.07
2023-03-28T19:42:36.489Z,73.96
2023-03-28T19:47:38.186Z,74.03
2023-03-28T19:52:39.940Z,75.05
2023-03-28T19:57:41.582Z,75.08
2023-03-28T20:02:43.977Z,76.11
2023-03-28T20:07:45.814Z,75.85
2023-03-28T20:12:47.625Z,76.40
2023-03-28T20:17:49.300Z,76.25
2023-03-28T20:22:50.942Z,76.40
2023-03-28T20:27:52.559Z,76.55
2023-03-28T20:32:54.326Z,76.98
2023-03-28T20:37:59.750Z,77.42
2023-03-28T20:43:04.990Z,76.95
2023-03-28T20:48:07.642Z,76.96
2023-03-28T20:53:09.704Z,77.20
2023-03-28T20:58:11.704Z,76.89
2023-03-28T21:03:15.734Z,76.91
2023-03-28T21:08:19.683Z,77.43
2023-03-28T21:13:23.069Z,77.57
2023-03-28T21:18:25.106Z,78.42
2023-03-28T21:23:27.123Z,78.20
2023-03-28T21:28:29.389Z,78.21
2023-03-28T21:33:31.259Z,78.25
2023-03-28T21:38:33.583Z,78.55
2023-03-28T21:43:35.668Z,78.75
2023-03-28T21:48:37.684Z,79.31
2023-03-28T21:53:42.073Z,79.37
2023-03-28T21:58:43.885Z,79.66
2023-03-28T22:03:47.053Z,79.73
2023-03-28T22:08:52.394Z,79.50
2023-03-28T22:14:04.922Z,79.43
2023-03-28T22:19:08.755Z,79.72
2023-03-28T22:24:13.264Z,80.54
2023-03-28T22:29:16.996Z,80.57
2023-03-28T22:34:20.895Z,81.23
2023-03-28T22:39:22.627Z,82.32
2023-03-28T22:44:26.644Z,81.15
2023-03-28T22:49:30.001Z,81.79
2023-03-28T22:54:36.548Z,81.61
2023-03-28T22:59:38.302Z,81.72
2023-03-28T23:04:40.247Z,81.57
2023-03-28T23:09:42.057Z,80.79
2023-03-28T23:14:43.663Z,81.72
2023-03-28T23:19:45.723Z,81.15
2023-03-28T23:24:51.624Z,80.63
2023-03-28T23:29:53.261Z,81.49
2023-03-28T23:34:54.987Z,81.92
2023-03-28T23:39:57.450Z,82.21
2023-03-28T23:44:59.139Z,82.06
2023-03-28T23:50:00.794Z,82.39
2023-03-28T23:55:02.884Z,82.74
